Time;durP1;ratioP1;P1;durP2;ratioP2;P2;SDS_P1;SDS_P2;PMS_P1;PMS_P2;Temp;Humidity;BMP_temperature;BMP_pressure;BME280_temperature;BME280_humidity;BME280_pressure;Samples;Min_cycle;Max_cycle;Signal;HPM_P1;HPM_P2
2021/04/11 00:00:50;;;;;;;10.15;6.43;;;;;;;7.38;41.57;100651.31;5013454;28;20053;-60
2021/04/11 00:03:20;;;;;;;18.15;6.93;;;;;;;7.27;41.35;100637.50;5004577;28;20042;-58
2021/04/11 00:05:47;;;;;;;13.07;6.43;;;;;;;7.39;40.92;100655.59;5003367;28;20030;-59
2021/04/11 00:08:14;;;;;;;16.65;7.03;;;;;;;7.41;41.05;100658.19;5003015;28;20065;-60
2021/04/11 00:10:43;;;;;;;15.13;6.82;;;;;;;7.30;41.47;100645.25;5003098;28;20030;-59
2021/04/11 00:13:16;;;;;;;16.33;7.20;;;;;;;7.07;40.74;100601.28;5007603;28;20029;-59
2021/04/11 00:15:41;;;;;;;12.05;6.90;;;;;;;7.31;41.16;100662.44;5020621;28;20030;-58
2021/04/11 00:18:08;;;;;;;21.25;7.85;;;;;;;7.28;41.84;100666.69;5003092;28;20037;-59
2021/04/11 00:20:34;;;;;;;15.82;7.57;;;;;;;7.21;41.81;100666.66;5006430;28;20037;-58
2021/04/11 00:23:00;;;;;;;13.75;6.38;;;;;;;7.24;41.95;100665.81;5006056;28;20034;-58
2021/04/11 00:25:32;;;;;;;18.17;7.15;;;;;;;6.87;43.05;100601.13;5022686;28;20026;-59
2021/04/11 00:27:58;;;;;;;9.82;6.65;;;;;;;7.16;43.48;100664.88;5022633;28;20096;-60
2021/04/11 00:30:25;;;;;;;13.05;6.45;;;;;;;7.14;43.00;100666.56;5022289;28;20037;-60
2021/04/11 00:32:55;;;;;;;14.45;6.63;;;;;;;7.11;43.37;100669.97;5022546;28;20026;-59
2021/04/11 00:35:21;;;;;;;11.55;6.50;;;;;;;7.10;43.58;100676.00;5022620;28;20315;-59
2021/04/11 00:37:47;;;;;;;15.55;6.88;;;;;;;6.99;43.36;100673.31;5022524;28;20364;-60
2021/04/11 00:40:21;;;;;;;18.85;7.50;;;;;;;7.02;43.73;100678.47;5022386;28;20317;-58
2021/04/11 00:43:15;;;;;;;15.48;7.75;;;;;;;6.99;42.67;100672.44;5021253;28;20034;-59
2021/04/11 00:46:10;;;;;;;14.48;7.10;;;;;;;6.64;42.86;100613.75;5000322;28;20046;-58
2021/04/11 00:48:36;;;;;;;10.23;7.07;;;;;;;6.98;42.79;100676.72;5002755;28;20030;-60
2021/04/11 00:51:06;;;;;;;16.17;8.13;;;;;;;6.86;42.89;100667.19;5002763;28;20030;-60
2021/04/11 00:53:32;;;;;;;14.77;8.32;;;;;;;6.96;43.70;100687.88;5009708;28;20497;-60
2021/04/11 00:56:00;;;;;;;16.95;7.53;;;;;;;6.97;44.62;100687.00;5022420;28;20040;-59
2021/04/11 00:58:27;;;;;;;14.38;7.60;;;;;;;6.89;45.15;100684.38;5023415;28;20373;-60
2021/04/11 01:00:54;;;;;;;17.10;7.70;;;;;;;6.88;44.55;100696.41;5026501;28;20069;-59
2021/04/11 01:03:24;;;;;;;16.90;7.88;;;;;;;6.51;44.98;100649.69;5021066;28;20026;-59
2021/04/11 01:05:51;;;;;;;16.50;8.20;;;;;;;6.79;44.12;100698.00;5006528;28;20341;-59
2021/04/11 01:08:20;;;;;;;14.32;7.47;;;;;;;6.40;45.56;100635.84;5006261;28;20041;-60
2021/04/11 01:11:11;;;;;;;12.40;6.32;;;;;;;6.77;45.85;100697.09;5006429;28;20033;-60
2021/04/11 01:13:47;;;;;;;15.38;7.40;;;;;;;6.37;46.10;100639.22;5013934;28;20213;-60
2021/04/11 01:16:14;;;;;;;10.68;6.25;;;;;;;6.74;46.05;100706.53;5024979;28;20147;-59
2021/04/11 01:18:41;;;;;;;11.85;7.38;;;;;;;6.70;45.85;100694.47;5026125;28;20257;-59
2021/04/11 01:21:16;;;;;;;13.05;6.82;;;;;;;6.41;45.19;100645.25;5025980;28;20027;-59
2021/04/11 01:23:52;;;;;;;16.13;6.97;;;;;;;6.38;45.63;100661.53;5017676;28;20034;-60
2021/04/11 01:26:19;;;;;;;11.38;6.30;;;;;;;6.63;46.21;100705.56;5006175;28;20033;-60
2021/04/11 01:28:47;;;;;;;9.70;6.78;;;;;;;6.62;46.13;100710.69;5005983;28;20026;-59
2021/04/11 01:31:14;;;;;;;15.57;6.93;;;;;;;6.63;46.51;100715.00;5025384;28;20041;-59
2021/04/11 01:33:49;;;;;;;12.85;7.47;;;;;;;6.57;46.15;100726.94;5025615;28;20034;-59
2021/04/11 01:36:21;;;;;;;12.70;7.28;;;;;;;6.36;47.12;100704.38;5025608;28;20269;-59
2021/04/11 01:38:48;;;;;;;11.48;7.95;;;;;;;6.43;46.37;100714.72;5025713;28;20033;-59
2021/04/11 01:41:29;;;;;;;14.73;8.10;;;;;;;6.39;47.11;100708.72;5025403;28;20230;-59
2021/04/11 01:43:56;;;;;;;19.67;7.35;;;;;;;6.43;46.85;100710.47;5014793;28;20026;-59
2021/04/11 01:46:24;;;;;;;13.20;6.95;;;;;;;6.34;47.23;100711.22;5005847;28;20034;-59
2021/04/11 01:48:50;;;;;;;13.07;6.45;;;;;;;6.27;47.37;100698.25;5005917;28;20326;-60
2021/04/11 01:51:19;;;;;;;16.13;6.95;;;;;;;6.38;47.44;100722.41;5005653;28;20036;-59
2021/04/11 01:53:47;;;;;;;11.68;6.47;;;;;;;6.30;47.61;100713.72;5013626;28;20025;-59
2021/04/11 01:56:13;;;;;;;12.95;7.15;;;;;;;6.25;48.34;100723.09;5025296;28;20369;-60
2021/04/11 01:58:41;;;;;;;13.95;7.05;;;;;;;6.17;47.96;100694.69;5057347;28;20133;-59
2021/04/11 02:01:09;;;;;;;13.07;6.80;;;;;;;6.25;48.11;100716.25;5025123;28;20295;-60
2021/04/11 02:03:35;;;;;;;14.40;7.43;;;;;;;6.19;48.19;100711.88;5017419;28;20235;-60
2021/04/11 02:06:12;;;;;;;15.68;7.28;;;;;;;6.15;47.84;100698.97;5005611;28;20041;-59
2021/04/11 02:08:40;;;;;;;16.65;7.05;;;;;;;6.15;48.06;100719.53;5005392;28;20042;-60
2021/04/11 02:11:07;;;;;;;11.60;7.03;;;;;;;6.14;48.53;100728.09;5004289;28;20029;-58
2021/04/11 02:13:38;;;;;;;14.23;7.53;;;;;;;6.09;48.95;100732.31;5011322;28;20029;-57
2021/04/11 02:16:06;;;;;;;12.25;7.50;;;;;;;6.08;49.13;100733.16;5056938;28;20271;-59
2021/04/11 02:18:35;;;;;;;16.17;7.65;;;;;;;5.97;48.48;100735.53;5023756;28;20025;-58
2021/04/11 02:21:06;;;;;;;15.13;7.47;;;;;;;5.96;48.53;100733.84;5024663;28;20096;-58
2021/04/11 02:23:33;;;;;;;17.75;8.23;;;;;;;6.00;49.24;100744.22;5018946;28;20034;-58
2021/04/11 02:25:59;;;;;;;13.07;7.28;;;;;;;5.98;49.39;100743.31;5005143;28;20038;-59
2021/04/11 02:28:28;;;;;;;14.32;7.57;;;;;;;5.62;49.25;100687.91;5005056;28;20101;-58
2021/04/11 02:31:16;;;;;;;16.75;7.75;;;;;;;5.62;49.21;100692.19;5021870;28;20030;-58
2021/04/11 02:33:47;;;;;;;19.92;8.73;;;;;;;5.96;48.44;100754.41;5024509;28;20034;-59
2021/04/11 02:36:17;;;;;;;;;;;;;;;5.82;49.25;100759.31;5025179;28;20080;-58
2021/04/11 02:38:45;;;;;;;19.52;8.10;;;;;;;5.77;49.99;100755.81;5024545;28;19913;-59
2021/04/11 02:41:13;;;;;;;16.58;7.82;;;;;;;5.40;49.81;100711.53;5023061;28;20026;-58
2021/04/11 02:43:40;;;;;;;13.98;8.68;;;;;;;5.73;48.80;100762.63;5023683;28;20226;-58
2021/04/11 02:46:06;;;;;;;19.17;8.57;;;;;;;5.70;48.73;100766.00;5023986;28;20032;-58
2021/04/11 02:48:33;;;;;;;16.38;8.70;;;;;;;5.64;49.61;100753.06;5024358;28;20037;-57
2021/04/11 02:50:59;;;;;;;16.30;8.02;;;;;;;5.77;48.90;100766.97;5024189;28;20033;-58
2021/04/11 02:53:27;;;;;;;16.00;8.07;;;;;;;5.72;48.16;100760.88;5024297;28;20046;-58
2021/04/11 02:55:54;;;;;;;12.43;7.63;;;;;;;5.74;48.92;100760.91;5024135;28;20045;-59
2021/04/11 02:58:22;;;;;;;15.70;9.13;;;;;;;5.38;49.00;100700.38;5024040;28;20037;-58
2021/04/11 03:00:55;;;;;;;16.40;9.07;;;;;;;5.80;48.80;100768.69;5023758;28;20026;-58
2021/04/11 03:03:21;;;;;;;14.07;8.40;;;;;;;5.82;47.75;100772.19;5022670;28;20218;-58
2021/04/11 03:05:48;;;;;;;16.70;9.13;;;;;;;5.76;48.70;100769.50;5023821;28;20319;-58
2021/04/11 03:08:18;;;;;;;13.45;7.28;;;;;;;5.82;48.02;100796.16;5023601;28;20057;-58
2021/04/11 03:11:02;;;;;;;14.85;9.15;;;;;;;5.88;48.64;100785.13;5023706;28;20341;-59
2021/04/11 03:13:29;;;;;;;15.43;7.57;;;;;;;5.95;48.74;100773.22;5021567;28;20100;-58
2021/04/11 03:15:56;;;;;;;11.77;7.15;;;;;;;5.93;48.81;100762.03;5023166;28;20046;-58
2021/04/11 03:18:25;;;;;;;14.23;7.65;;;;;;;6.05;48.64;100781.13;5023456;28;20371;-59
2021/04/11 03:20:52;;;;;;;13.35;8.02;;;;;;;6.07;48.29;100781.16;5023322;28;20037;-59
2021/04/11 03:23:20;;;;;;;13.93;8.02;;;;;;;5.76;48.28;100718.09;5023533;28;20036;-59
2021/04/11 03:25:50;;;;;;;17.90;8.27;;;;;;;6.20;47.90;100774.50;5023529;28;20049;-59
2021/04/11 03:28:25;;;;;;;17.85;8.85;;;;;;;6.14;47.64;100777.84;5023346;28;20049;-58
2021/04/11 03:31:17;;;;;;;17.83;9.48;;;;;;;6.18;47.39;100778.72;5023402;28;20060;-61
2021/04/11 03:33:49;;;;;;;20.33;9.63;;;;;;;6.47;46.85;100814.28;5018073;28;20064;-59
2021/04/11 03:36:18;;;;;;;18.20;9.73;;;;;;;6.72;45.43;100776.88;5023302;28;20045;-60
2021/04/11 03:38:45;;;;;;;15.40;9.07;;;;;;;6.97;45.41;100790.91;5021040;28;20210;-59
2021/04/11 03:41:13;;;;;;;16.67;9.15;;;;;;;6.88;45.59;100791.66;5020887;28;20081;-60
2021/04/11 03:44:00;;;;;;;17.45;8.90;;;;;;;6.61;45.30;100729.53;5012394;28;20049;-60
2021/04/11 03:46:37;;;;;;;13.85;8.77;;;;;;;6.85;44.92;100775.31;5023305;28;20319;-58
2021/04/11 03:49:17;;;;;;;13.30;8.70;;;;;;;7.15;45.12;100805.69;5022904;28;20041;-59
2021/04/11 03:51:45;;;;;;;19.38;9.70;;;;;;;6.75;44.47;100746.00;5023195;28;20053;-60
2021/04/11 03:54:14;;;;;;;17.50;10.00;;;;;;;7.07;44.35;100808.19;5023055;28;20065;-60
2021/04/11 03:56:56;;;;;;;20.17;10.50;;;;;;;6.69;44.43;100744.22;5023298;28;20037;-61
2021/04/11 03:59:28;;;;;;;18.92;9.55;;;;;;;7.15;45.29;100812.56;5015013;28;20037;-61
2021/04/11 04:01:57;;;;;;;18.17;9.73;;;;;;;6.77;45.28;100756.31;5023258;28;20104;-63
2021/04/11 04:04:25;;;;;;;19.65;10.73;;;;;;;6.84;45.00;100752.97;5022965;28;20038;-63
2021/04/11 04:07:12;;;;;;;17.85;9.45;;;;;;;7.26;45.25;100826.41;5023181;28;20025;-60
2021/04/11 04:09:40;;;;;;;20.48;9.85;;;;;;;7.35;45.39;100829.06;5022856;28;20046;-60
2021/04/11 04:12:33;;;;;;;17.02;10.18;;;;;;;7.36;45.81;100823.06;5022993;28;20032;-58
2021/04/11 04:15:03;;;;;;;15.40;9.02;;;;;;;7.46;45.68;100830.91;5015047;28;20267;-60
2021/04/11 04:17:33;;;;;;;15.90;10.43;;;;;;;7.50;45.96;100824.94;5022341;28;20212;-60
2021/04/11 04:20:31;;;;;;;22.73;10.35;;;;;;;7.55;45.60;100831.00;5022461;28;20322;-62
2021/04/11 04:23:12;;;;;;;22.52;9.77;;;;;;;7.61;45.30;100831.06;5022605;28;20042;-62
2021/04/11 04:25:55;;;;;;;24.95;10.38;;;;;;;7.29;44.65;100781.78;5021345;28;20021;-61
2021/04/11 04:28:51;;;;;;;16.00;10.18;;;;;;;7.32;44.38;100831.63;5021251;28;20153;-60
2021/04/11 04:31:40;;;;;;;16.17;9.48;;;;;;;7.30;43.64;100835.91;5018050;28;20285;-62
2021/04/11 04:34:45;;;;;;;15.00;9.52;;;;;;;7.26;44.04;100840.16;5021253;28;20033;-61
2021/04/11 04:37:47;;;;;;;18.70;10.30;;;;;;;6.90;43.98;100784.81;4999112;28;20046;-61
2021/04/11 04:40:44;;;;;;;19.45;9.82;;;;;;;6.95;44.01;100792.59;4984176;28;20069;-61
2021/04/11 04:43:31;;;;;;;14.73;9.27;;;;;;;7.44;44.09;100854.09;5005425;28;20030;-61
2021/04/11 04:46:06;;;;;;;22.35;9.98;;;;;;;7.58;44.31;100862.84;5022654;28;20092;-62
2021/04/11 04:48:38;;;;;;;15.73;10.23;;;;;;;7.72;43.78;100865.53;5022664;28;20318;-60
2021/04/11 04:51:14;;;;;;;19.00;10.15;;;;;;;7.37;43.49;100814.50;5022316;28;20029;-62
2021/04/11 04:54:03;;;;;;;16.33;9.13;;;;;;;7.92;42.91;100870.88;5022057;28;20022;-61
2021/04/11 04:56:37;;;;;;;18.63;9.57;;;;;;;7.49;42.88;100802.59;5021641;28;20025;-61
2021/04/11 04:59:09;;;;;;;17.80;9.32;;;;;;;8.11;43.40;100884.78;5021287;28;20038;-62
2021/04/11 05:01:41;;;;;;;21.10;9.85;;;;;;;7.73;44.23;100810.53;5021373;28;20022;-62
2021/04/11 05:04:17;;;;;;;13.40;9.23;;;;;;;8.16;42.69;100865.91;5021548;28;20040;-62
2021/04/11 05:06:46;;;;;;;22.48;10.27;;;;;;;7.91;42.06;100814.13;5002959;28;20215;-61
2021/04/11 05:09:31;;;;;;;20.52;9.55;;;;;;;8.38;42.14;100859.16;5001802;28;20062;-61
2021/04/11 05:12:04;;;;;;;19.77;10.32;;;;;;;8.12;41.93;100811.72;5002758;28;20354;-62
2021/04/11 05:15:03;;;;;;;17.25;10.25;;;;;;;8.50;43.03;100872.19;5008785;28;20030;-61
2021/04/11 05:17:40;;;;;;;17.50;9.98;;;;;;;8.70;42.23;100882.66;4997341;28;20042;-61
2021/04/11 05:20:08;;;;;;;16.13;10.25;;;;;;;8.41;42.70;100818.75;5002599;28;20289;-60
2021/04/11 05:22:41;;;;;;;17.83;10.43;;;;;;;8.73;41.43;100884.38;5002458;28;20369;-60
2021/04/11 05:25:15;;;;;;;16.20;10.57;;;;;;;8.79;41.58;100887.88;5018712;28;20039;-60
2021/04/11 05:27:51;;;;;;;17.55;10.70;;;;;;;9.20;40.25;100888.06;5022613;28;20037;-59
2021/04/11 05:30:23;;;;;;;24.80;10.27;;;;;;;10.37;39.09;100885.63;5016779;28;20030;-61
2021/04/11 05:32:51;;;;;;;17.35;10.60;;;;;;;10.56;37.71;100886.50;5022315;28;20036;-61
2021/04/11 05:35:18;;;;;;;20.60;10.65;;;;;;;11.38;36.87;100874.06;5020791;28;20222;-62
2021/04/11 05:38:20;;;;;;;23.38;10.77;;;;;;;11.17;37.97;100880.25;5022000;28;20053;-62
2021/04/11 05:41:13;;;;;;;21.17;11.70;;;;;;;10.96;38.76;100885.50;5022299;28;20030;-62
2021/04/11 05:43:53;;;;;;;18.65;10.80;;;;;;;10.59;38.26;100883.00;5004225;28;20271;-62
2021/04/11 05:46:33;;;;;;;25.00;11.23;;;;;;;10.51;38.73;100832.09;5024194;28;20263;-62
2021/04/11 05:49:14;;;;;;;20.35;11.07;;;;;;;11.40;38.05;100892.22;5025734;28;20226;-63
2021/04/11 05:51:44;;;;;;;19.73;11.55;;;;;;;11.97;36.18;100884.13;5025659;28;20034;-62
2021/04/11 05:54:20;;;;;;;22.02;11.45;;;;;;;12.47;35.67;100879.34;5017189;28;20065;-62
2021/04/11 05:57:00;;;;;;;21.00;11.55;;;;;;;12.85;36.00;100878.06;5005730;28;20273;-62
2021/04/11 05:59:38;;;;;;;20.40;11.07;;;;;;;12.80;34.69;100887.66;5005866;28;20026;-63
2021/04/11 06:02:06;;;;;;;19.70;10.98;;;;;;;13.03;35.30;100896.94;5005629;28;20038;-63
2021/04/11 06:04:39;;;;;;;24.63;11.20;;;;;;;12.97;33.13;100840.66;5016855;28;20117;-65
2021/04/11 06:07:14;;;;;;;19.77;12.30;;;;;;;12.88;34.29;100840.78;5025414;28;20038;-63
2021/04/11 06:09:49;;;;;;;17.40;11.55;;;;;;;13.28;33.78;100885.34;5024970;28;20046;-62
2021/04/11 06:13:00;;;;;;;25.45;12.10;;;;;;;13.05;33.32;100846.59;5025056;28;20226;-62
2021/04/11 06:15:33;;;;;;;23.10;10.95;;;;;;;13.39;33.40;100913.00;5003786;28;20042;-63
2021/04/11 06:18:02;;;;;;;20.45;12.50;;;;;;;13.62;33.88;100891.84;5004454;28;20027;-62
2021/04/11 06:20:28;;;;;;;22.35;12.60;;;;;;;13.87;34.15;100900.16;5005234;28;20037;-61
2021/04/11 06:23:31;;;;;;;19.38;11.98;;;;;;;14.05;32.43;100890.31;5005300;28;20076;-62
2021/04/11 06:26:00;;;;;;;23.60;12.48;;;;;;;14.08;32.26;100885.06;5005501;28;20080;-62
2021/04/11 06:28:32;;;;;;;20.88;12.23;;;;;;;14.18;33.64;100890.97;5004929;28;20034;-60
2021/04/11 06:31:09;;;;;;;21.25;12.07;;;;;;;13.81;32.09;100849.03;5021988;28;20076;-59
2021/04/11 06:33:41;;;;;;;20.30;12.45;;;;;;;14.05;32.36;100849.53;5023309;28;20385;-60
2021/04/11 06:36:44;;;;;;;15.55;12.27;;;;;;;14.78;31.06;100903.00;5024130;28;20030;-59
2021/04/11 06:39:25;;;;;;;21.77;12.60;;;;;;;14.77;30.57;100862.16;5002345;28;20208;-61
2021/04/11 06:41:59;;;;;;;35.78;12.70;;;;;;;15.45;31.33;100918.13;5021974;28;20042;-59
2021/04/11 06:44:54;;;;;;;20.40;12.05;;;;;;;15.90;30.68;100884.06;5017213;28;20030;-59
2021/04/11 06:47:36;;;;;;;22.00;11.93;;;;;;;16.43;29.89;100916.75;5008237;28;20319;-59
2021/04/11 06:50:19;;;;;;;21.55;13.35;;;;;;;15.93;29.87;100925.78;5004716;28;20046;-61
2021/04/11 06:53:15;;;;;;;20.83;12.40;;;;;;;15.61;30.13;100932.59;5008715;28;20026;-61
2021/04/11 06:55:50;;;;;;;18.58;12.70;;;;;;;15.59;30.64;100929.16;5021441;28;20034;-60
2021/04/11 06:58:34;;;;;;;20.20;12.27;;;;;;;15.67;29.45;100927.22;5023594;28;20314;-60
2021/04/11 07:01:26;;;;;;;26.25;13.07;;;;;;;16.28;29.16;100929.31;5020898;28;20093;-60
2021/04/11 07:03:55;;;;;;;24.80;13.32;;;;;;;17.03;28.81;100928.25;5013923;28;20052;-59
2021/04/11 07:06:41;;;;;;;22.35;12.45;;;;;;;17.26;28.09;100930.22;5023749;28;20030;-60
2021/04/11 07:09:32;;;;;;;29.83;13.70;;;;;;;16.93;27.56;100930.28;5022993;28;20334;-60
2021/04/11 07:12:22;;;;;;;28.42;13.00;;;;;;;17.21;27.72;100934.72;5021602;28;20021;-60
2021/04/11 07:15:03;;;;;;;22.90;12.60;;;;;;;17.41;27.76;100932.41;5021912;28;20033;-59
2021/04/11 07:17:50;;;;;;;26.30;13.15;;;;;;;17.76;26.81;100927.81;5021721;28;20089;-59
2021/04/11 07:20:35;;;;;;;19.45;13.73;;;;;;;18.49;27.12;100930.75;5020336;28;20036;-59
2021/04/11 07:23:26;;;;;;;31.58;14.25;;;;;;;18.89;26.04;100933.78;5021483;28;20314;-59
2021/04/11 07:26:21;;;;;;;22.40;13.25;;;;;;;18.68;27.13;100941.44;5006934;28;20045;-59
2021/04/11 07:29:25;;;;;;;20.65;12.98;;;;;;;19.08;25.10;100940.06;5022357;28;20338;-62
2021/04/11 07:32:12;;;;;;;22.67;14.23;;;;;;;18.80;26.66;100943.66;5022721;28;20029;-60
2021/04/11 07:35:06;;;;;;;22.13;13.20;;;;;;;19.07;26.60;100946.22;5022144;28;20029;-59
2021/04/11 07:37:56;;;;;;;23.35;12.95;;;;;;;19.25;25.53;100949.09;5016856;28;20129;-59
2021/04/11 07:40:59;;;;;;;29.40;13.88;;;;;;;19.25;25.37;100952.59;5021143;28;20053;-58
2021/04/11 07:43:59;;;;;;;22.13;13.18;;;;;;;18.49;25.27;100956.13;5020522;28;20061;-60
2021/04/11 07:46:49;;;;;;;16.55;12.20;;;;;;;18.61;26.73;100953.06;5003071;28;20049;-60
2021/04/11 07:49:24;;;;;;;27.45;12.02;;;;;;;18.69;25.21;100955.44;5020524;28;20038;-60
2021/04/11 07:51:52;;;;;;;20.05;12.70;;;;;;;18.72;25.41;100956.19;5022630;28;20026;-61
2021/04/11 07:54:45;;;;;;;21.73;12.07;;;;;;;18.62;25.46;100945.13;5022639;28;20258;-60
2021/04/11 07:57:32;;;;;;;17.27;11.50;;;;;;;19.86;24.81;100955.56;5019950;28;20030;-62
2021/04/11 08:00:36;;;;;;;18.48;11.13;;;;;;;20.24;24.82;100951.38;5020211;28;20025;-61
2021/04/11 08:03:41;;;;;;;23.55;12.50;;;;;;;20.13;24.43;100959.69;5021032;28;20200;-61
2021/04/11 08:06:31;;;;;;;14.70;11.43;;;;;;;19.87;25.16;100965.19;5022234;28;20032;-62
2021/04/11 08:09:09;;;;;;;17.80;11.90;;;;;;;19.31;26.70;100959.34;5021275;28;20262;-61
2021/04/11 08:11:59;;;;;;;21.73;11.27;;;;;;;19.23;25.11;100966.69;5020392;28;20250;-60
2021/04/11 08:14:34;;;;;;;21.70;11.40;;;;;;;18.82;25.34;100966.38;5037028;28;20030;-61
2021/04/11 08:17:12;;;;;;;22.65;12.18;;;;;;;18.59;25.91;100965.41;5022621;28;20050;-61
2021/04/11 08:19:44;;;;;;;22.85;11.63;;;;;;;18.32;25.93;100972.44;5023012;28;20038;-60
2021/04/11 08:23:00;;;;;;;23.60;11.55;;;;;;;17.96;27.06;100915.88;5022662;28;20033;-60
2021/04/11 08:26:10;;;;;;;19.35;10.48;;;;;;;17.71;25.67;100976.88;5011417;28;20037;-62
2021/04/11 08:29:13;;;;;;;24.33;10.40;;;;;;;17.94;27.98;100980.59;5011939;28;20053;-63
2021/04/11 08:31:41;;;;;;;18.70;10.32;;;;;;;18.02;26.58;100975.13;5016327;28;20084;-63
2021/04/11 08:34:38;;;;;;;97.35;14.32;;;;;;;18.07;26.73;100971.47;5022338;28;20038;-63
2021/04/11 08:37:19;;;;;;;17.50;10.07;;;;;;;17.82;26.53;100980.97;5021789;28;20290;-61
2021/04/11 08:40:06;;;;;;;17.83;9.93;;;;;;;17.91;26.64;100972.84;5019181;28;20045;-61
2021/04/11 08:42:54;;;;;;;18.85;9.80;;;;;;;17.79;27.39;100921.63;5019771;28;20045;-61
2021/04/11 08:45:46;;;;;;;18.08;11.02;;;;;;;17.65;26.43;100979.69;5021543;28;20029;-61
2021/04/11 08:48:27;;;;;;;20.52;10.63;;;;;;;17.83;26.98;100972.16;5021922;28;20034;-62
2021/04/11 08:51:34;;;;;;;15.15;9.48;;;;;;;18.13;26.35;100966.91;5020374;28;20022;-63
2021/04/11 08:54:05;;;;;;;13.93;8.90;;;;;;;18.25;27.74;100966.50;5017032;28;20049;-62
2021/04/11 08:56:39;;;;;;;12.70;8.82;;;;;;;17.33;25.90;100984.13;5022414;28;20042;-62
2021/04/11 08:59:14;;;;;;;12.30;7.90;;;;;;;17.28;25.64;100930.19;5021712;28;20022;-61
2021/04/11 09:02:11;;;;;;;14.82;8.38;;;;;;;18.06;27.22;100963.66;5019891;28;20041;-61
2021/04/11 09:04:44;;;;;;;16.10;8.82;;;;;;;17.83;26.53;100990.53;5015782;28;20319;-60
2021/04/11 09:07:34;;;;;;;18.27;9.10;;;;;;;17.87;25.82;100973.78;5018743;28;20053;-61
2021/04/11 09:10:25;;;;;;;12.10;7.82;;;;;;;17.89;26.69;100969.38;5019070;28;20045;-59
2021/04/11 09:13:19;;;;;;;17.13;8.45;;;;;;;17.43;25.95;100975.09;5021065;28;20037;-60
2021/04/11 09:15:51;;;;;;;13.60;9.23;;;;;;;16.96;26.85;100969.44;5018251;28;20026;-60
2021/04/11 09:18:16;;;;;;;;;;;;;;;17.68;27.38;100970.91;5019980;28;20076;-60
2021/04/11 09:20:54;;;;;;;13.60;9.27;;;;;;;17.74;26.00;100971.56;5022090;28;19906;-59
2021/04/11 09:23:42;;;;;;;14.75;8.20;;;;;;;17.86;25.91;100972.09;5025229;28;20060;-61
2021/04/11 09:26:42;;;;;;;13.18;7.90;;;;;;;17.83;26.27;100973.06;5025330;28;20036;-61
2021/04/11 09:29:11;;;;;;;15.43;8.68;;;;;;;17.39;26.19;100970.84;5023919;28;20064;-62
2021/04/11 09:31:52;;;;;;;12.13;8.85;;;;;;;17.18;26.44;100969.69;5021936;28;20054;-57
2021/04/11 09:34:42;;;;;;;16.30;8.80;;;;;;;17.33;27.98;100965.78;5022698;28;20036;-56
2021/04/11 09:37:14;;;;;;;10.75;8.23;;;;;;;17.50;27.65;100965.31;5020835;28;20034;-57
2021/04/11 09:39:46;;;;;;;;;;;;;;;17.52;27.49;100971.34;5006284;28;20227;-62
2021/04/11 09:42:27;;;;;;;12.75;7.45;;;;;;;17.48;26.61;100972.34;5023957;28;19971;-59
2021/04/11 09:45:18;;;;;;;14.30;8.38;;;;;;;17.28;27.39;100961.59;5024148;28;20141;-60
2021/04/11 09:47:57;;;;;;;12.32;8.07;;;;;;;17.30;27.42;100971.13;5023774;28;20026;-59
2021/04/11 09:50:49;;;;;;;12.60;7.68;;;;;;;17.09;27.38;100915.00;5005673;28;20035;-59
2021/04/11 09:53:26;;;;;;;12.55;7.65;;;;;;;17.51;27.50;100974.00;5021477;28;20034;-58
2021/04/11 09:56:12;;;;;;;12.75;7.82;;;;;;;17.33;27.20;100970.16;5024552;28;20319;-58
2021/04/11 09:58:57;;;;;;;10.95;7.18;;;;;;;17.44;28.25;100973.31;5024393;28;20101;-59
2021/04/11 10:01:39;;;;;;;13.27;7.40;;;;;;;17.22;26.46;100978.34;5024817;28;20038;-59
2021/04/11 10:04:23;;;;;;;10.25;7.53;;;;;;;17.32;27.38;100979.78;5025100;28;20034;-60
2021/04/11 10:06:55;;;;;;;13.10;7.45;;;;;;;17.45;27.63;100982.91;5024852;28;20207;-61
2021/04/11 10:09:34;;;;;;;13.13;6.90;;;;;;;17.57;27.37;100984.31;5023738;28;20038;-60
2021/04/11 10:12:37;;;;;;;13.88;7.85;;;;;;;17.38;27.54;100982.22;5012931;28;20247;-61
2021/04/11 10:15:15;;;;;;;13.98;7.07;;;;;;;17.35;27.07;100989.31;5012401;28;20037;-60
2021/04/11 10:18:03;;;;;;;11.02;6.85;;;;;;;17.38;27.50;100995.31;5004840;28;20088;-61
2021/04/11 10:20:44;;;;;;;12.88;7.20;;;;;;;17.33;27.54;100993.72;5005202;28;20026;-60
2021/04/11 10:23:30;;;;;;;13.02;6.78;;;;;;;17.61;27.75;100993.78;5004986;28;20041;-61
2021/04/11 10:26:00;;;;;;;9.82;7.05;;;;;;;17.50;27.40;100982.75;5023948;28;20026;-61
2021/04/11 10:28:43;;;;;;;8.43;6.47;;;;;;;17.53;27.11;100990.53;5024379;28;20105;-61
2021/04/11 10:31:48;;;;;;;9.32;6.07;;;;;;;17.58;27.42;100992.13;5023377;28;20121;-61
2021/04/11 10:34:41;;;;;;;14.77;7.53;;;;;;;17.46;27.62;101002.09;5024312;28;20030;-61
2021/04/11 10:37:46;;;;;;;8.68;7.05;;;;;;;17.62;27.57;101003.38;5004811;28;20188;-61
2021/04/11 10:40:54;;;;;;;11.23;7.90;;;;;;;17.55;27.24;101000.06;4995711;28;20042;-59
2021/04/11 10:43:47;;;;;;;11.88;7.60;;;;;;;17.55;26.37;100997.44;5004685;28;20076;-60
2021/04/11 10:46:29;;;;;;;10.50;7.25;;;;;;;17.12;26.49;100942.84;5003483;28;20042;-61
2021/04/11 10:48:58;;;;;;;12.68;7.80;;;;;;;17.33;26.59;100992.00;5004483;28;20030;-61
2021/04/11 10:51:35;;;;;;;9.20;7.20;;;;;;;17.64;27.85;100996.31;5004172;28;20101;-61
2021/04/11 10:54:20;;;;;;;14.32;7.13;;;;;;;17.71;26.55;100992.59;5011083;28;20045;-60
2021/04/11 10:57:07;;;;;;;11.50;7.72;;;;;;;17.62;27.30;100992.91;5004275;28;20029;-60
2021/04/11 10:59:55;;;;;;;13.57;7.50;;;;;;;17.59;28.62;100998.22;5015226;28;20029;-60
2021/04/11 11:02:51;;;;;;;11.63;7.82;;;;;;;17.51;26.99;100992.34;5023838;28;20033;-60
2021/04/11 11:05:38;;;;;;;12.07;8.05;;;;;;;17.48;26.08;100992.44;5023869;28;20093;-61
2021/04/11 11:08:22;;;;;;;16.67;8.10;;;;;;;17.24;26.79;100989.63;5023643;28;20026;-61
2021/04/11 11:11:16;;;;;;;12.88;7.80;;;;;;;17.60;26.85;100984.22;5023640;28;20038;-60
2021/04/11 11:14:10;;;;;;;11.43;7.22;;;;;;;17.72;26.82;100993.47;5037843;28;20315;-59
2021/04/11 11:16:58;;;;;;;11.10;7.35;;;;;;;17.44;26.74;100962.84;5011785;28;20343;-60
2021/04/11 11:20:02;;;;;;;12.07;7.70;;;;;;;17.40;26.65;100993.53;5003989;28;20041;-60
2021/04/11 11:22:42;;;;;;;15.05;8.13;;;;;;;17.49;26.58;100996.78;5013500;28;20030;-60
2021/04/11 11:25:43;;;;;;;14.85;7.43;;;;;;;17.61;26.79;100991.16;5017114;28;20104;-60
2021/04/11 11:28:15;;;;;;;11.23;7.18;;;;;;;17.32;27.15;100958.00;5007774;28;20096;-60
2021/04/11 11:30:56;;;;;;;;;;;;;;;17.31;26.51;100998.16;5023621;28;20038;-61
2021/04/11 11:33:42;;;;;;;10.73;7.20;;;;;;;17.50;26.98;100999.34;5023540;28;19921;-61
2021/04/11 11:36:21;;;;;;;10.73;6.72;;;;;;;17.39;27.46;100946.44;5023259;28;20311;-61
2021/04/11 11:38:59;;;;;;;13.65;7.68;;;;;;;17.64;28.83;100992.84;5023300;28;20025;-61
2021/04/11 11:42:02;;;;;;;9.43;7.63;;;;;;;17.66;26.68;100996.25;5022955;28;20041;-59
2021/04/11 11:45:00;;;;;;;12.50;7.82;;;;;;;17.32;26.99;100974.53;5022911;28;20341;-61
2021/04/11 11:47:54;;;;;;;12.18;7.40;;;;;;;17.35;29.20;100948.25;5023072;28;20030;-61
2021/04/11 11:50:44;;;;;;;11.15;7.55;;;;;;;17.85;27.84;100991.34;5023084;28;20030;-61
2021/04/11 11:53:18;;;;;;;9.15;7.55;;;;;;;17.70;26.55;100985.66;5023021;28;20037;-62
2021/04/11 11:56:07;;;;;;;16.02;8.10;;;;;;;17.61;27.30;100946.63;5006534;28;20034;-62
2021/04/11 11:58:58;;;;;;;11.88;7.05;;;;;;;17.95;27.02;100982.31;5003398;28;20023;-63
2021/04/11 12:01:35;;;;;;;11.85;7.88;;;;;;;17.67;26.03;100956.94;5003273;28;20105;-63
2021/04/11 12:04:33;;;;;;;9.70;7.32;;;;;;;18.00;26.78;100995.28;5005381;28;20069;-62
2021/04/11 12:07:07;;;;;;;13.88;6.97;;;;;;;18.06;27.61;100989.88;5003018;28;20229;-64
2021/04/11 12:09:44;;;;;;;11.23;7.03;;;;;;;18.16;27.42;100990.44;5002780;28;20073;-62
2021/04/11 12:12:27;;;;;;;15.65;8.55;;;;;;;17.72;26.61;100983.00;5003127;28;20238;-63
2021/04/11 12:15:17;;;;;;;16.15;7.95;;;;;;;17.95;27.81;100995.44;5011883;28;20030;-64